sensor_id;sensor_type;location;lat;lon;timestamp;P1;durP1;ratioP1;P2;durP2;ratioP2
32611;SDS011;19030;49.478;8.986;2022-09-09T00:01:30;4.70;;;2.47;;
32611;SDS011;19030;49.478;8.986;2022-09-09T00:03:43;3.20;;;2.20;;
32611;SDS011;19030;49.478;8.986;2022-09-09T00:06:14;4.38;;;2.47;;
32611;SDS011;19030;49.478;8.986;2022-09-09T00:08:29;3.75;;;2.42;;
32611;SDS011;19030;49.478;8.986;2022-09-09T00:10:53;4.00;;;2.50;;
32611;SDS011;19030;49.478;8.986;2022-09-09T00:15:21;5.22;;;2.50;;
32611;SDS011;19030;49.478;8.986;2022-09-09T00:17:31;6.18;;;2.10;;
32611;SDS011;19030;49.478;8.986;2022-09-09T00:19:44;3.83;;;2.15;;
32611;SDS011;19030;49.478;8.986;2022-09-09T00:24:46;4.18;;;2.40;;
32611;SDS011;19030;49.478;8.986;2022-09-09T00:31:27;4.30;;;2.40;;
32611;SDS011;19030;49.478;8.986;2022-09-09T00:33:29;5.22;;;3.22;;
32611;SDS011;19030;49.478;8.986;2022-09-09T00:35:32;4.28;;;2.45;;
32611;SDS011;19030;49.478;8.986;2022-09-09T00:37:36;5.60;;;2.25;;
32611;SDS011;19030;49.478;8.986;2022-09-09T00:39:40;3.20;;;2.25;;
32611;SDS011;19030;49.478;8.986;2022-09-09T00:46:37;5.78;;;2.30;;
32611;SDS011;19030;49.478;8.986;2022-09-09T00:50:57;3.25;;;2.40;;
32611;SDS011;19030;49.478;8.986;2022-09-09T00:53:08;6.68;;;2.50;;
32611;SDS011;19030;49.478;8.986;2022-09-09T00:57:44;4.82;;;2.33;;
32611;SDS011;19030;49.478;8.986;2022-09-09T00:59:52;4.55;;;2.70;;
32611;SDS011;19030;49.478;8.986;2022-09-09T01:02:16;3.58;;;2.20;;
32611;SDS011;19030;49.478;8.986;2022-09-09T01:04:35;4.53;;;2.28;;
32611;SDS011;19030;49.478;8.986;2022-09-09T01:06:37;3.42;;;2.42;;
32611;SDS011;19030;49.478;8.986;2022-09-09T01:11:20;6.88;;;3.72;;
32611;SDS011;19030;49.478;8.986;2022-09-09T01:13:27;5.65;;;3.35;;
32611;SDS011;19030;49.478;8.986;2022-09-09T01:15:36;4.63;;;2.50;;
32611;SDS011;19030;49.478;8.986;2022-09-09T01:19:49;4.28;;;2.50;;
32611;SDS011;19030;49.478;8.986;2022-09-09T01:24:25;4.57;;;2.47;;
32611;SDS011;19030;49.478;8.986;2022-09-09T01:26:54;4.05;;;2.55;;
32611;SDS011;19030;49.478;8.986;2022-09-09T01:29:00;5.60;;;2.80;;
32611;SDS011;19030;49.478;8.986;2022-09-09T01:31:09;4.82;;;2.50;;
32611;SDS011;19030;49.478;8.986;2022-09-09T01:33:18;5.13;;;2.80;;
32611;SDS011;19030;49.478;8.986;2022-09-09T01:37:42;5.07;;;2.70;;
32611;SDS011;19030;49.478;8.986;2022-09-09T01:39:43;4.93;;;2.47;;
32611;SDS011;19030;49.478;8.986;2022-09-09T01:41:47;4.30;;;2.40;;
32611;SDS011;19030;49.478;8.986;2022-09-09T01:43:52;4.20;;;2.85;;
32611;SDS011;19030;49.478;8.986;2022-09-09T01:45:55;7.13;;;2.63;;
32611;SDS011;19030;49.478;8.986;2022-09-09T01:47:59;4.47;;;2.60;;
32611;SDS011;19030;49.478;8.986;2022-09-09T01:50:19;5.53;;;2.50;;
32611;SDS011;19030;49.478;8.986;2022-09-09T01:52:21;3.88;;;2.50;;
32611;SDS011;19030;49.478;8.986;2022-09-09T01:54:23;7.75;;;2.60;;
32611;SDS011;19030;49.478;8.986;2022-09-09T01:56:41;3.42;;;2.22;;
32611;SDS011;19030;49.478;8.986;2022-09-09T01:58:59;4.63;;;2.58;;
32611;SDS011;19030;49.478;8.986;2022-09-09T02:01:13;7.18;;;2.38;;
32611;SDS011;19030;49.478;8.986;2022-09-09T02:03:25;4.35;;;2.60;;
32611;SDS011;19030;49.478;8.986;2022-09-09T02:05:39;4.90;;;2.40;;
32611;SDS011;19030;49.478;8.986;2022-09-09T02:08:09;4.30;;;2.40;;
32611;SDS011;19030;49.478;8.986;2022-09-09T02:10:53;4.85;;;2.20;;
32611;SDS011;19030;49.478;8.986;2022-09-09T02:13:15;3.70;;;2.20;;
32611;SDS011;19030;49.478;8.986;2022-09-09T02:15:35;4.28;;;2.30;;
32611;SDS011;19030;49.478;8.986;2022-09-09T02:17:39;5.72;;;2.72;;
32611;SDS011;19030;49.478;8.986;2022-09-09T02:19:48;4.65;;;2.40;;
32611;SDS011;19030;49.478;8.986;2022-09-09T02:21:59;3.13;;;2.30;;
32611;SDS011;19030;49.478;8.986;2022-09-09T02:24:02;4.55;;;2.28;;
32611;SDS011;19030;49.478;8.986;2022-09-09T02:26:08;5.63;;;2.20;;
32611;SDS011;19030;49.478;8.986;2022-09-09T02:28:13;3.55;;;2.08;;
32611;SDS011;19030;49.478;8.986;2022-09-09T02:30:16;2.83;;;2.25;;
32611;SDS011;19030;49.478;8.986;2022-09-09T02:32:26;5.00;;;2.38;;
32611;SDS011;19030;49.478;8.986;2022-09-09T02:34:32;4.30;;;2.53;;
32611;SDS011;19030;49.478;8.986;2022-09-09T02:36:36;4.80;;;2.47;;
32611;SDS011;19030;49.478;8.986;2022-09-09T02:38:41;5.70;;;2.50;;
32611;SDS011;19030;49.478;8.986;2022-09-09T02:40:48;6.25;;;2.33;;
32611;SDS011;19030;49.478;8.986;2022-09-09T02:42:49;3.47;;;2.47;;
32611;SDS011;19030;49.478;8.986;2022-09-09T02:44:52;4.93;;;2.45;;
32611;SDS011;19030;49.478;8.986;2022-09-09T02:47:12;3.95;;;2.65;;
32611;SDS011;19030;49.478;8.986;2022-09-09T02:53:49;4.32;;;2.45;;
32611;SDS011;19030;49.478;8.986;2022-09-09T02:55:57;5.43;;;2.60;;
32611;SDS011;19030;49.478;8.986;2022-09-09T02:58:03;4.75;;;2.40;;
32611;SDS011;19030;49.478;8.986;2022-09-09T03:00:08;4.28;;;2.47;;
32611;SDS011;19030;49.478;8.986;2022-09-09T03:02:10;3.30;;;2.40;;
32611;SDS011;19030;49.478;8.986;2022-09-09T03:04:14;6.78;;;2.60;;
32611;SDS011;19030;49.478;8.986;2022-09-09T03:06:14;4.57;;;2.63;;
32611;SDS011;19030;49.478;8.986;2022-09-09T03:08:18;4.03;;;2.42;;
32611;SDS011;19030;49.478;8.986;2022-09-09T03:10:19;5.68;;;2.50;;
32611;SDS011;19030;49.478;8.986;2022-09-09T03:12:20;5.97;;;2.55;;
32611;SDS011;19030;49.478;8.986;2022-09-09T03:14:22;6.15;;;2.60;;
32611;SDS011;19030;49.478;8.986;2022-09-09T03:16:24;5.07;;;2.70;;
32611;SDS011;19030;49.478;8.986;2022-09-09T03:18:27;4.78;;;2.40;;
32611;SDS011;19030;49.478;8.986;2022-09-09T03:20:29;3.90;;;2.45;;
32611;SDS011;19030;49.478;8.986;2022-09-09T03:22:30;4.00;;;2.65;;
32611;SDS011;19030;49.478;8.986;2022-09-09T03:24:33;5.60;;;2.53;;
32611;SDS011;19030;49.478;8.986;2022-09-09T03:26:37;7.43;;;3.08;;
32611;SDS011;19030;49.478;8.986;2022-09-09T03:28:38;5.47;;;2.80;;
32611;SDS011;19030;49.478;8.986;2022-09-09T03:30:39;9.60;;;2.70;;
32611;SDS011;19030;49.478;8.986;2022-09-09T03:32:40;4.90;;;2.90;;
32611;SDS011;19030;49.478;8.986;2022-09-09T03:34:41;3.55;;;2.50;;
32611;SDS011;19030;49.478;8.986;2022-09-09T03:36:45;3.42;;;2.70;;
32611;SDS011;19030;49.478;8.986;2022-09-09T03:38:48;5.63;;;2.45;;
32611;SDS011;19030;49.478;8.986;2022-09-09T03:40:50;4.75;;;2.65;;
32611;SDS011;19030;49.478;8.986;2022-09-09T03:42:56;6.68;;;2.60;;
32611;SDS011;19030;49.478;8.986;2022-09-09T03:44:58;3.55;;;2.33;;
32611;SDS011;19030;49.478;8.986;2022-09-09T03:47:00;5.18;;;2.60;;
32611;SDS011;19030;49.478;8.986;2022-09-09T03:49:00;6.68;;;2.50;;
32611;SDS011;19030;49.478;8.986;2022-09-09T03:51:04;4.20;;;2.33;;
32611;SDS011;19030;49.478;8.986;2022-09-09T03:53:06;3.38;;;2.30;;
32611;SDS011;19030;49.478;8.986;2022-09-09T03:55:06;4.45;;;2.63;;
32611;SDS011;19030;49.478;8.986;2022-09-09T03:57:09;5.30;;;2.85;;
32611;SDS011;19030;49.478;8.986;2022-09-09T03:59:10;4.70;;;2.78;;
32611;SDS011;19030;49.478;8.986;2022-09-09T04:01:12;6.38;;;2.70;;
32611;SDS011;19030;49.478;8.986;2022-09-09T04:03:15;4.72;;;2.35;;
32611;SDS011;19030;49.478;8.986;2022-09-09T04:05:15;3.95;;;2.45;;
32611;SDS011;19030;49.478;8.986;2022-09-09T04:07:18;7.75;;;3.10;;
32611;SDS011;19030;49.478;8.986;2022-09-09T04:09:19;4.95;;;2.45;;
32611;SDS011;19030;49.478;8.986;2022-09-09T04:11:19;3.70;;;2.55;;
32611;SDS011;19030;49.478;8.986;2022-09-09T04:13:23;5.05;;;2.67;;
32611;SDS011;19030;49.478;8.986;2022-09-09T04:15:25;3.75;;;2.50;;
32611;SDS011;19030;49.478;8.986;2022-09-09T04:17:25;4.85;;;2.90;;
32611;SDS011;19030;49.478;8.986;2022-09-09T04:19:26;4.88;;;2.60;;
32611;SDS011;19030;49.478;8.986;2022-09-09T04:21:26;3.67;;;2.58;;
32611;SDS011;19030;49.478;8.986;2022-09-09T04:23:27;5.30;;;3.30;;
32611;SDS011;19030;49.478;8.986;2022-09-09T04:25:30;4.70;;;2.75;;
32611;SDS011;19030;49.478;8.986;2022-09-09T04:27:31;4.30;;;2.70;;
32611;SDS011;19030;49.478;8.986;2022-09-09T04:29:32;3.67;;;2.60;;
32611;SDS011;19030;49.478;8.986;2022-09-09T04:31:33;4.28;;;2.75;;
32611;SDS011;19030;49.478;8.986;2022-09-09T04:33:35;3.95;;;2.60;;
32611;SDS011;19030;49.478;8.986;2022-09-09T04:35:35;5.53;;;3.25;;
32611;SDS011;19030;49.478;8.986;2022-09-09T04:37:37;4.25;;;2.58;;
32611;SDS011;19030;49.478;8.986;2022-09-09T04:39:38;4.72;;;3.00;;
32611;SDS011;19030;49.478;8.986;2022-09-09T04:41:39;5.38;;;2.97;;
32611;SDS011;19030;49.478;8.986;2022-09-09T04:43:40;3.78;;;2.72;;
32611;SDS011;19030;49.478;8.986;2022-09-09T04:45:42;4.38;;;3.00;;
32611;SDS011;19030;49.478;8.986;2022-09-09T04:47:44;4.13;;;2.45;;
32611;SDS011;19030;49.478;8.986;2022-09-09T04:49:45;3.38;;;2.47;;
32611;SDS011;19030;49.478;8.986;2022-09-09T04:51:45;5.50;;;2.95;;
32611;SDS011;19030;49.478;8.986;2022-09-09T04:53:50;3.85;;;2.63;;
32611;SDS011;19030;49.478;8.986;2022-09-09T04:56:03;5.53;;;2.78;;
32611;SDS011;19030;49.478;8.986;2022-09-09T04:58:14;3.88;;;2.42;;
32611;SDS011;19030;49.478;8.986;2022-09-09T05:00:16;4.28;;;3.00;;
32611;SDS011;19030;49.478;8.986;2022-09-09T05:02:18;5.68;;;2.92;;
32611;SDS011;19030;49.478;8.986;2022-09-09T05:04:18;5.55;;;2.97;;
32611;SDS011;19030;49.478;8.986;2022-09-09T05:06:20;5.72;;;2.72;;
32611;SDS011;19030;49.478;8.986;2022-09-09T05:08:23;5.47;;;2.53;;
32611;SDS011;19030;49.478;8.986;2022-09-09T05:10:24;3.42;;;2.55;;
32611;SDS011;19030;49.478;8.986;2022-09-09T05:12:26;6.22;;;3.42;;
32611;SDS011;19030;49.478;8.986;2022-09-09T05:14:27;8.32;;;2.83;;
32611;SDS011;19030;49.478;8.986;2022-09-09T05:16:28;8.80;;;2.53;;
32611;SDS011;19030;49.478;8.986;2022-09-09T05:18:30;7.10;;;2.80;;
32611;SDS011;19030;49.478;8.986;2022-09-09T05:20:30;3.88;;;2.40;;
32611;SDS011;19030;49.478;8.986;2022-09-09T05:22:32;5.28;;;2.60;;
32611;SDS011;19030;49.478;8.986;2022-09-09T05:24:33;3.85;;;2.55;;
32611;SDS011;19030;49.478;8.986;2022-09-09T05:26:35;4.50;;;2.70;;
32611;SDS011;19030;49.478;8.986;2022-09-09T05:28:36;6.97;;;3.13;;
32611;SDS011;19030;49.478;8.986;2022-09-09T05:30:37;6.97;;;2.85;;
32611;SDS011;19030;49.478;8.986;2022-09-09T05:32:39;3.22;;;2.67;;
32611;SDS011;19030;49.478;8.986;2022-09-09T05:34:41;3.97;;;2.60;;
32611;SDS011;19030;49.478;8.986;2022-09-09T05:36:41;4.30;;;2.53;;
32611;SDS011;19030;49.478;8.986;2022-09-09T05:38:43;7.07;;;2.67;;
32611;SDS011;19030;49.478;8.986;2022-09-09T05:40:47;3.42;;;2.35;;
32611;SDS011;19030;49.478;8.986;2022-09-09T05:42:49;5.40;;;2.80;;
32611;SDS011;19030;49.478;8.986;2022-09-09T05:44:49;3.97;;;2.35;;
32611;SDS011;19030;49.478;8.986;2022-09-09T05:46:51;5.55;;;2.60;;
32611;SDS011;19030;49.478;8.986;2022-09-09T05:48:51;4.20;;;2.42;;
32611;SDS011;19030;49.478;8.986;2022-09-09T05:50:55;4.30;;;2.72;;
32611;SDS011;19030;49.478;8.986;2022-09-09T05:52:56;6.30;;;2.50;;
32611;SDS011;19030;49.478;8.986;2022-09-09T05:54:56;3.85;;;2.67;;
32611;SDS011;19030;49.478;8.986;2022-09-09T05:56:57;3.60;;;2.47;;
32611;SDS011;19030;49.478;8.986;2022-09-09T05:58:58;4.03;;;2.50;;
32611;SDS011;19030;49.478;8.986;2022-09-09T06:03:12;5.55;;;2.60;;
32611;SDS011;19030;49.478;8.986;2022-09-09T06:05:13;3.75;;;2.40;;
32611;SDS011;19030;49.478;8.986;2022-09-09T06:07:15;5.25;;;2.55;;
32611;SDS011;19030;49.478;8.986;2022-09-09T06:09:16;4.13;;;2.67;;
32611;SDS011;19030;49.478;8.986;2022-09-09T06:11:18;4.80;;;2.92;;
32611;SDS011;19030;49.478;8.986;2022-09-09T06:13:19;5.43;;;2.80;;
32611;SDS011;19030;49.478;8.986;2022-09-09T06:15:20;5.90;;;2.63;;
32611;SDS011;19030;49.478;8.986;2022-09-09T06:17:20;4.63;;;2.70;;
32611;SDS011;19030;49.478;8.986;2022-09-09T06:19:21;5.20;;;2.60;;
32611;SDS011;19030;49.478;8.986;2022-09-09T06:21:27;6.20;;;3.08;;
32611;SDS011;19030;49.478;8.986;2022-09-09T06:23:35;3.92;;;2.20;;
32611;SDS011;19030;49.478;8.986;2022-09-09T06:25:36;4.10;;;2.70;;
32611;SDS011;19030;49.478;8.986;2022-09-09T06:27:42;3.63;;;2.35;;
32611;SDS011;19030;49.478;8.986;2022-09-09T06:29:44;3.75;;;2.40;;
32611;SDS011;19030;49.478;8.986;2022-09-09T06:31:44;4.38;;;2.50;;
32611;SDS011;19030;49.478;8.986;2022-09-09T06:33:54;3.38;;;2.50;;
32611;SDS011;19030;49.478;8.986;2022-09-09T06:35:57;4.43;;;2.50;;
32611;SDS011;19030;49.478;8.986;2022-09-09T06:37:58;9.02;;;3.15;;
32611;SDS011;19030;49.478;8.986;2022-09-09T06:39:59;4.18;;;2.58;;
32611;SDS011;19030;49.478;8.986;2022-09-09T06:41:59;4.60;;;2.50;;
32611;SDS011;19030;49.478;8.986;2022-09-09T06:44:18;4.90;;;2.92;;
32611;SDS011;19030;49.478;8.986;2022-09-09T06:46:21;4.40;;;2.40;;
32611;SDS011;19030;49.478;8.986;2022-09-09T06:48:24;6.07;;;2.83;;
32611;SDS011;19030;49.478;8.986;2022-09-09T06:50:28;5.47;;;2.60;;
32611;SDS011;19030;49.478;8.986;2022-09-09T06:52:29;5.80;;;2.92;;
32611;SDS011;19030;49.478;8.986;2022-09-09T06:54:31;6.88;;;3.10;;
32611;SDS011;19030;49.478;8.986;2022-09-09T06:56:33;4.80;;;1.90;;
32611;SDS011;19030;49.478;8.986;2022-09-09T06:58:39;3.85;;;2.40;;
32611;SDS011;19030;49.478;8.986;2022-09-09T07:00:46;3.70;;;2.55;;
32611;SDS011;19030;49.478;8.986;2022-09-09T07:02:46;4.78;;;2.67;;
32611;SDS011;19030;49.478;8.986;2022-09-09T07:04:48;4.65;;;2.67;;
32611;SDS011;19030;49.478;8.986;2022-09-09T07:06:51;4.43;;;2.88;;
32611;SDS011;19030;49.478;8.986;2022-09-09T07:09:00;5.10;;;2.40;;
32611;SDS011;19030;49.478;8.986;2022-09-09T07:11:05;4.88;;;2.40;;
32611;SDS011;19030;49.478;8.986;2022-09-09T07:13:09;5.10;;;2.67;;
32611;SDS011;19030;49.478;8.986;2022-09-09T07:15:10;4.97;;;2.78;;
32611;SDS011;19030;49.478;8.986;2022-09-09T07:17:13;3.95;;;2.58;;
32611;SDS011;19030;49.478;8.986;2022-09-09T07:19:14;5.90;;;2.50;;
32611;SDS011;19030;49.478;8.986;2022-09-09T07:21:16;3.80;;;2.50;;
32611;SDS011;19030;49.478;8.986;2022-09-09T07:23:18;4.50;;;2.67;;
32611;SDS011;19030;49.478;8.986;2022-09-09T07:25:18;6.22;;;3.10;;
32611;SDS011;19030;49.478;8.986;2022-09-09T07:27:20;5.28;;;2.75;;
32611;SDS011;19030;49.478;8.986;2022-09-09T07:29:22;4.95;;;3.28;;
32611;SDS011;19030;49.478;8.986;2022-09-09T07:31:28;8.15;;;3.50;;
32611;SDS011;19030;49.478;8.986;2022-09-09T07:33:34;5.22;;;2.63;;
32611;SDS011;19030;49.478;8.986;2022-09-09T07:35:36;8.77;;;2.78;;
32611;SDS011;19030;49.478;8.986;2022-09-09T07:37:37;8.25;;;2.80;;
32611;SDS011;19030;49.478;8.986;2022-09-09T07:39:38;2.80;;;2.00;;
32611;SDS011;19030;49.478;8.986;2022-09-09T07:41:42;10.35;;;3.80;;
32611;SDS011;19030;49.478;8.986;2022-09-09T07:43:47;6.85;;;3.40;;
32611;SDS011;19030;49.478;8.986;2022-09-09T07:45:48;5.53;;;2.90;;
32611;SDS011;19030;49.478;8.986;2022-09-09T07:47:58;5.45;;;2.78;;
32611;SDS011;19030;49.478;8.986;2022-09-09T07:49:59;4.65;;;3.28;;
32611;SDS011;19030;49.478;8.986;2022-09-09T07:52:04;6.50;;;4.15;;
32611;SDS011;19030;49.478;8.986;2022-09-09T07:54:07;6.07;;;2.42;;
32611;SDS011;19030;49.478;8.986;2022-09-09T07:56:12;4.55;;;3.28;;
32611;SDS011;19030;49.478;8.986;2022-09-09T07:58:17;8.57;;;3.17;;
32611;SDS011;19030;49.478;8.986;2022-09-09T08:00:17;5.40;;;3.20;;
32611;SDS011;19030;49.478;8.986;2022-09-09T08:02:24;6.68;;;3.50;;
32611;SDS011;19030;49.478;8.986;2022-09-09T08:04:29;5.80;;;2.92;;
32611;SDS011;19030;49.478;8.986;2022-09-09T08:06:35;7.28;;;3.13;;
32611;SDS011;19030;49.478;8.986;2022-09-09T08:08:38;9.52;;;3.65;;
32611;SDS011;19030;49.478;8.986;2022-09-09T08:10:41;7.68;;;3.80;;
32611;SDS011;19030;49.478;8.986;2022-09-09T08:12:43;7.03;;;3.25;;
32611;SDS011;19030;49.478;8.986;2022-09-09T08:14:44;8.63;;;3.05;;
32611;SDS011;19030;49.478;8.986;2022-09-09T08:16:46;8.55;;;2.95;;
32611;SDS011;19030;49.478;8.986;2022-09-09T08:18:51;10.88;;;3.40;;
32611;SDS011;19030;49.478;8.986;2022-09-09T08:20:54;9.65;;;3.40;;
32611;SDS011;19030;49.478;8.986;2022-09-09T08:22:55;7.97;;;3.50;;
32611;SDS011;19030;49.478;8.986;2022-09-09T08:24:55;12.38;;;3.10;;
32611;SDS011;19030;49.478;8.986;2022-09-09T08:26:56;13.85;;;3.42;;
32611;SDS011;19030;49.478;8.986;2022-09-09T08:28:58;8.20;;;3.17;;
32611;SDS011;19030;49.478;8.986;2022-09-09T08:31:07;9.80;;;3.20;;
32611;SDS011;19030;49.478;8.986;2022-09-09T08:33:14;8.43;;;2.45;;
32611;SDS011;19030;49.478;8.986;2022-09-09T08:35:15;10.20;;;2.85;;
32611;SDS011;19030;49.478;8.986;2022-09-09T08:37:15;8.32;;;3.20;;
32611;SDS011;19030;49.478;8.986;2022-09-09T08:39:18;6.85;;;2.75;;
32611;SDS011;19030;49.478;8.986;2022-09-09T08:41:35;7.10;;;2.92;;
32611;SDS011;19030;49.478;8.986;2022-09-09T08:49:13;13.57;;;3.20;;
32611;SDS011;19030;49.478;8.986;2022-09-09T08:51:21;11.75;;;3.17;;
32611;SDS011;19030;49.478;8.986;2022-09-09T08:53:27;9.77;;;2.92;;
32611;SDS011;19030;49.478;8.986;2022-09-09T08:55:45;8.57;;;3.40;;
32611;SDS011;19030;49.478;8.986;2022-09-09T08:57:50;11.32;;;3.78;;
32611;SDS011;19030;49.478;8.986;2022-09-09T08:59:53;7.85;;;3.00;;
32611;SDS011;19030;49.478;8.986;2022-09-09T09:02:14;6.85;;;2.88;;
32611;SDS011;19030;49.478;8.986;2022-09-09T09:06:53;7.47;;;2.80;;
32611;SDS011;19030;49.478;8.986;2022-09-09T09:11:05;9.95;;;2.40;;
32611;SDS011;19030;49.478;8.986;2022-09-09T09:13:17;7.57;;;2.38;;
32611;SDS011;19030;49.478;8.986;2022-09-09T09:15:23;8.57;;;2.85;;
32611;SDS011;19030;49.478;8.986;2022-09-09T09:17:27;12.98;;;2.30;;
32611;SDS011;19030;49.478;8.986;2022-09-09T09:19:35;6.33;;;1.83;;
32611;SDS011;19030;49.478;8.986;2022-09-09T09:24:13;5.85;;;2.03;;
32611;SDS011;19030;49.478;8.986;2022-09-09T09:26:19;5.63;;;1.70;;
32611;SDS011;19030;49.478;8.986;2022-09-09T09:28:23;4.65;;;2.47;;
32611;SDS011;19030;49.478;8.986;2022-09-09T09:30:31;9.50;;;2.00;;
32611;SDS011;19030;49.478;8.986;2022-09-09T09:32:39;3.97;;;1.70;;
32611;SDS011;19030;49.478;8.986;2022-09-09T09:34:54;6.63;;;2.25;;
32611;SDS011;19030;49.478;8.986;2022-09-09T09:36:57;5.85;;;2.30;;
32611;SDS011;19030;49.478;8.986;2022-09-09T09:41:06;9.10;;;5.60;;
32611;SDS011;19030;49.478;8.986;2022-09-09T09:43:16;7.78;;;5.07;;
32611;SDS011;19030;49.478;8.986;2022-09-09T09:45:28;6.88;;;3.25;;
32611;SDS011;19030;49.478;8.986;2022-09-09T09:47:36;7.88;;;4.10;;
32611;SDS011;19030;49.478;8.986;2022-09-09T09:49:52;6.90;;;4.00;;
32611;SDS011;19030;49.478;8.986;2022-09-09T09:51:53;6.10;;;4.55;;
32611;SDS011;19030;49.478;8.986;2022-09-09T09:54:08;6.13;;;4.13;;
32611;SDS011;19030;49.478;8.986;2022-09-09T09:56:26;8.73;;;4.30;;
32611;SDS011;19030;49.478;8.986;2022-09-09T09:58:33;8.48;;;3.88;;
32611;SDS011;19030;49.478;8.986;2022-09-09T10:00:51;8.60;;;3.70;;
32611;SDS011;19030;49.478;8.986;2022-09-09T10:02:55;6.32;;;3.47;;
32611;SDS011;19030;49.478;8.986;2022-09-09T10:05:08;7.32;;;3.25;;
32611;SDS011;19030;49.478;8.986;2022-09-09T10:07:13;5.93;;;2.60;;
32611;SDS011;19030;49.478;8.986;2022-09-09T10:11:42;4.70;;;2.40;;
32611;SDS011;19030;49.478;8.986;2022-09-09T10:23:04;7.55;;;2.75;;
32611;SDS011;19030;49.478;8.986;2022-09-09T10:29:47;5.18;;;2.53;;
32611;SDS011;19030;49.478;8.986;2022-09-09T10:32:09;10.13;;;2.63;;
32611;SDS011;19030;49.478;8.986;2022-09-09T10:37:01;9.35;;;2.90;;
32611;SDS011;19030;49.478;8.986;2022-09-09T10:42:20;10.43;;;3.05;;
32611;SDS011;19030;49.478;8.986;2022-09-09T10:44:22;5.10;;;2.55;;
32611;SDS011;19030;49.478;8.986;2022-09-09T10:46:38;6.60;;;2.53;;
32611;SDS011;19030;49.478;8.986;2022-09-09T10:54:23;6.82;;;2.90;;
32611;SDS011;19030;49.478;8.986;2022-09-09T10:56:33;10.48;;;6.13;;
32611;SDS011;19030;49.478;8.986;2022-09-09T10:58:42;8.68;;;3.75;;
32611;SDS011;19030;49.478;8.986;2022-09-09T11:00:49;8.85;;;3.20;;
32611;SDS011;19030;49.478;8.986;2022-09-09T11:03:03;9.02;;;4.50;;
32611;SDS011;19030;49.478;8.986;2022-09-09T11:05:20;10.60;;;5.25;;
32611;SDS011;19030;49.478;8.986;2022-09-09T11:07:40;7.88;;;5.05;;
32611;SDS011;19030;49.478;8.986;2022-09-09T11:09:53;8.18;;;4.53;;
32611;SDS011;19030;49.478;8.986;2022-09-09T11:12:01;8.63;;;4.55;;
32611;SDS011;19030;49.478;8.986;2022-09-09T11:18:45;11.05;;;4.35;;
32611;SDS011;19030;49.478;8.986;2022-09-09T11:20:47;8.70;;;3.70;;
32611;SDS011;19030;49.478;8.986;2022-09-09T11:25:07;8.43;;;3.63;;
32611;SDS011;19030;49.478;8.986;2022-09-09T11:27:15;6.45;;;3.70;;
32611;SDS011;19030;49.478;8.986;2022-09-09T11:31:57;6.35;;;3.40;;
32611;SDS011;19030;49.478;8.986;2022-09-09T11:38:44;8.50;;;3.70;;
32611;SDS011;19030;49.478;8.986;2022-09-09T11:40:45;5.35;;;3.10;;
32611;SDS011;19030;49.478;8.986;2022-09-09T11:43:03;6.57;;;3.38;;
32611;SDS011;19030;49.478;8.986;2022-09-09T11:45:23;6.82;;;3.63;;
32611;SDS011;19030;49.478;8.986;2022-09-09T11:47:29;7.43;;;3.25;;
32611;SDS011;19030;49.478;8.986;2022-09-09T11:49:40;6.03;;;3.38;;
32611;SDS011;19030;49.478;8.986;2022-09-09T11:51:42;5.75;;;2.90;;
32611;SDS011;19030;49.478;8.986;2022-09-09T11:53:53;6.90;;;3.30;;
32611;SDS011;19030;49.478;8.986;2022-09-09T11:56:04;8.32;;;3.75;;
32611;SDS011;19030;49.478;8.986;2022-09-09T11:58:17;5.93;;;3.30;;
32611;SDS011;19030;49.478;8.986;2022-09-09T12:00:32;8.52;;;3.08;;
32611;SDS011;19030;49.478;8.986;2022-09-09T12:02:37;8.40;;;3.25;;
32611;SDS011;19030;49.478;8.986;2022-09-09T12:05:06;7.18;;;3.05;;
32611;SDS011;19030;49.478;8.986;2022-09-09T12:09:33;8.85;;;3.40;;
32611;SDS011;19030;49.478;8.986;2022-09-09T12:16:44;7.25;;;2.40;;
32611;SDS011;19030;49.478;8.986;2022-09-09T12:18:44;6.28;;;2.47;;
32611;SDS011;19030;49.478;8.986;2022-09-09T12:27:43;10.02;;;2.78;;
32611;SDS011;19030;49.478;8.986;2022-09-09T12:32:07;7.28;;;2.72;;
32611;SDS011;19030;49.478;8.986;2022-09-09T12:34:28;6.57;;;2.42;;
32611;SDS011;19030;49.478;8.986;2022-09-09T12:36:37;6.40;;;2.38;;
32611;SDS011;19030;49.478;8.986;2022-09-09T12:38:40;8.95;;;2.97;;
32611;SDS011;19030;49.478;8.986;2022-09-09T12:40:41;7.47;;;2.60;;
32611;SDS011;19030;49.478;8.986;2022-09-09T12:42:42;5.65;;;2.80;;
32611;SDS011;19030;49.478;8.986;2022-09-09T12:44:52;6.85;;;2.80;;
32611;SDS011;19030;49.478;8.986;2022-09-09T12:47:06;7.30;;;3.00;;
32611;SDS011;19030;49.478;8.986;2022-09-09T12:49:22;8.02;;;2.67;;
32611;SDS011;19030;49.478;8.986;2022-09-09T12:51:36;8.50;;;2.50;;
32611;SDS011;19030;49.478;8.986;2022-09-09T12:53:38;5.07;;;2.50;;
32611;SDS011;19030;49.478;8.986;2022-09-09T12:55:48;6.68;;;2.53;;
32611;SDS011;19030;49.478;8.986;2022-09-09T12:57:54;6.63;;;2.60;;
32611;SDS011;19030;49.478;8.986;2022-09-09T13:00:04;5.30;;;2.40;;
32611;SDS011;19030;49.478;8.986;2022-09-09T13:04:20;6.63;;;2.60;;
32611;SDS011;19030;49.478;8.986;2022-09-09T13:06:30;6.43;;;2.50;;
32611;SDS011;19030;49.478;8.986;2022-09-09T13:08:32;5.32;;;2.53;;
32611;SDS011;19030;49.478;8.986;2022-09-09T13:10:33;5.32;;;2.40;;
32611;SDS011;19030;49.478;8.986;2022-09-09T13:12:38;4.93;;;2.30;;
32611;SDS011;19030;49.478;8.986;2022-09-09T13:14:42;5.13;;;2.10;;
32611;SDS011;19030;49.478;8.986;2022-09-09T13:16:56;5.43;;;2.03;;
32611;SDS011;19030;49.478;8.986;2022-09-09T13:18:59;6.40;;;2.38;;
32611;SDS011;19030;49.478;8.986;2022-09-09T13:21:08;7.22;;;2.42;;
32611;SDS011;19030;49.478;8.986;2022-09-09T13:23:09;6.25;;;2.10;;
32611;SDS011;19030;49.478;8.986;2022-09-09T13:27:28;8.45;;;2.35;;
32611;SDS011;19030;49.478;8.986;2022-09-09T13:29:33;7.43;;;2.30;;
32611;SDS011;19030;49.478;8.986;2022-09-09T13:31:36;6.38;;;2.28;;
32611;SDS011;19030;49.478;8.986;2022-09-09T13:33:37;5.75;;;2.10;;
32611;SDS011;19030;49.478;8.986;2022-09-09T13:35:45;3.88;;;1.90;;
32611;SDS011;19030;49.478;8.986;2022-09-09T13:37:49;3.38;;;2.03;;
32611;SDS011;19030;49.478;8.986;2022-09-09T13:39:53;5.03;;;2.22;;
32611;SDS011;19030;49.478;8.986;2022-09-09T13:41:54;7.07;;;2.10;;
32611;SDS011;19030;49.478;8.986;2022-09-09T13:43:55;4.63;;;2.25;;
32611;SDS011;19030;49.478;8.986;2022-09-09T13:46:00;5.75;;;2.13;;
32611;SDS011;19030;49.478;8.986;2022-09-09T13:48:10;5.07;;;2.20;;
32611;SDS011;19030;49.478;8.986;2022-09-09T13:50:26;5.00;;;2.10;;
32611;SDS011;19030;49.478;8.986;2022-09-09T13:52:29;6.78;;;2.10;;
32611;SDS011;19030;49.478;8.986;2022-09-09T13:54:31;5.38;;;2.28;;
32611;SDS011;19030;49.478;8.986;2022-09-09T13:56:35;4.50;;;2.00;;
32611;SDS011;19030;49.478;8.986;2022-09-09T13:58:36;5.25;;;2.33;;
32611;SDS011;19030;49.478;8.986;2022-09-09T14:00:37;7.47;;;2.30;;
32611;SDS011;19030;49.478;8.986;2022-09-09T14:02:38;6.72;;;1.92;;
32611;SDS011;19030;49.478;8.986;2022-09-09T14:04:39;5.65;;;1.88;;
32611;SDS011;19030;49.478;8.986;2022-09-09T14:06:41;3.90;;;1.60;;
32611;SDS011;19030;49.478;8.986;2022-09-09T14:08:43;6.63;;;2.03;;
32611;SDS011;19030;49.478;8.986;2022-09-09T14:10:45;6.47;;;2.05;;
32611;SDS011;19030;49.478;8.986;2022-09-09T14:12:46;3.45;;;1.50;;
32611;SDS011;19030;49.478;8.986;2022-09-09T14:14:46;4.60;;;1.60;;
32611;SDS011;19030;49.478;8.986;2022-09-09T14:16:47;6.10;;;1.70;;
32611;SDS011;19030;49.478;8.986;2022-09-09T14:18:48;3.15;;;1.50;;
32611;SDS011;19030;49.478;8.986;2022-09-09T14:20:48;3.88;;;1.52;;
32611;SDS011;19030;49.478;8.986;2022-09-09T14:22:50;4.10;;;1.50;;
32611;SDS011;19030;49.478;8.986;2022-09-09T14:24:50;3.67;;;1.35;;
32611;SDS011;19030;49.478;8.986;2022-09-09T14:26:51;2.03;;;1.30;;
32611;SDS011;19030;49.478;8.986;2022-09-09T14:28:52;3.97;;;1.63;;
32611;SDS011;19030;49.478;8.986;2022-09-09T14:30:52;3.42;;;1.40;;